createdAt,value
2018-02-04T00:00:00.582Z,7.30
2018-02-04T00:01:00.530Z,6.70
2018-02-04T00:02:00.528Z,6.60
2018-02-04T00:03:00.526Z,6.50
2018-02-04T00:04:00.558Z,5.90
2018-02-04T00:05:00.550Z,4.80
2018-02-04T00:06:00.501Z,3.90
2018-02-04T00:07:00.497Z,3.40
2018-02-04T00:08:00.492Z,2.20
2018-02-04T00:09:00.485Z,4.10
2018-02-04T00:10:00.539Z,3.20
2018-02-04T00:11:00.472Z,3.80
2018-02-04T00:12:00.467Z,3.70
2018-02-04T00:13:00.459Z,3.90
2018-02-04T00:14:00.454Z,3.10
2018-02-04T00:15:00.500Z,4.40
2018-02-04T00:16:00.445Z,4.20
2018-02-04T00:17:00.438Z,4.70
2018-02-04T00:18:00.429Z,5.00
2018-02-04T00:19:00.472Z,3.50
2018-02-04T00:20:00.418Z,3.80
2018-02-04T00:21:00.409Z,5.00
2018-02-04T00:22:00.467Z,3.70
2018-02-04T00:23:00.400Z,3.60
2018-02-04T00:24:00.446Z,3.50
2018-02-04T00:25:00.430Z,3.70
2018-02-04T00:26:00.381Z,3.90
2018-02-04T00:27:00.380Z,3.70
2018-02-04T00:28:00.375Z,2.50
2018-02-04T00:29:00.373Z,3.10
2018-02-04T00:30:00.412Z,3.20
2018-02-04T00:31:00.356Z,2.90
2018-02-04T00:32:00.351Z,3.40
2018-02-04T00:33:00.396Z,3.50
2018-02-04T00:34:00.344Z,3.40
2018-02-04T00:35:00.379Z,3.50
2018-02-04T00:36:00.369Z,4.30
2018-02-04T00:37:00.337Z,3.10
2018-02-04T00:38:00.323Z,3.90
2018-02-04T00:39:00.318Z,3.10
2018-02-04T00:40:00.306Z,3.40
2018-02-04T00:41:00.353Z,2.90
2018-02-04T00:42:00.299Z,4.00
2018-02-04T00:43:00.288Z,3.30
2018-02-04T00:44:00.276Z,3.10
2018-02-04T00:45:00.315Z,1.80
2018-02-04T00:46:00.270Z,4.20
2018-02-04T00:47:00.257Z,3.10
2018-02-04T00:48:00.259Z,2.50
2018-02-04T00:49:00.245Z,2.50
2018-02-04T00:50:00.277Z,3.50
2018-02-04T00:51:00.235Z,2.10
2018-02-04T00:52:00.237Z,2.20
2018-02-04T00:53:00.227Z,2.60
2018-02-04T00:54:00.214Z,3.80
2018-02-04T00:55:00.260Z,3.00
2018-02-04T00:56:01.119Z,3.20
2018-02-04T00:57:00.199Z,3.50
2018-02-04T00:58:00.197Z,3.20
2018-02-04T00:59:00.189Z,2.50
2018-02-04T01:00:00.231Z,3.30
2018-02-04T01:01:00.978Z,3.70
2018-02-04T01:02:00.176Z,3.90
2018-02-04T01:03:00.169Z,3.50
2018-02-04T01:04:00.156Z,3.40
2018-02-04T01:05:00.189Z,1.40
2018-02-04T01:06:00.183Z,4.30
2018-02-04T01:07:00.140Z,3.00
2018-02-04T01:08:00.137Z,2.80
2018-02-04T01:09:00.127Z,4.30
2018-02-04T01:10:00.130Z,2.30
2018-02-04T01:11:00.158Z,3.80
2018-02-04T01:12:00.114Z,3.30
2018-02-04T01:13:00.100Z,3.60
2018-02-04T01:14:00.098Z,4.80
2018-02-04T01:15:00.094Z,3.40
2018-02-04T01:16:00.135Z,3.20
2018-02-04T01:17:00.084Z,3.90
2018-02-04T01:18:00.086Z,3.50
2018-02-04T01:19:00.114Z,3.50
2018-02-04T01:20:00.063Z,3.30
2018-02-04T01:21:00.054Z,5.70
2018-02-04T01:22:00.102Z,4.40
2018-02-04T01:23:00.048Z,5.00
2018-02-04T01:24:00.043Z,5.30
2018-02-04T01:25:00.035Z,3.40
2018-02-04T01:26:00.037Z,4.10
2018-02-04T01:27:00.062Z,3.80
2018-02-04T01:28:00.019Z,3.70
2018-02-04T01:29:00.021Z,3.10
2018-02-04T01:30:00.003Z,4.90
2018-02-04T01:31:00.000Z,3.70
2018-02-04T01:32:00.044Z,4.30
2018-02-04T01:32:59.990Z,3.20
2018-02-04T01:33:59.983Z,3.80
2018-02-04T01:34:59.971Z,4.60
2018-02-04T01:35:59.974Z,3.90
2018-02-04T01:36:59.996Z,2.90
2018-02-04T01:37:59.952Z,4.90
2018-02-04T01:38:59.951Z,3.50
2018-02-04T01:39:59.942Z,3.60
2018-02-04T01:40:59.943Z,2.80
2018-02-04T01:41:59.977Z,4.30
2018-02-04T01:42:59.923Z,3.40
2018-02-04T01:43:59.915Z,5.50
2018-02-04T01:44:59.959Z,3.20
2018-02-04T01:45:59.906Z,4.40
2018-02-04T01:46:59.906Z,4.60
2018-02-04T01:47:59.999Z,3.70
2018-02-04T01:48:59.890Z,4.40
2018-02-04T01:49:59.925Z,4.20
2018-02-04T01:50:59.875Z,3.10
2018-02-04T01:51:59.869Z,4.00
2018-02-04T01:52:59.868Z,3.70
2018-02-04T01:53:59.901Z,3.50
2018-02-04T01:54:59.850Z,3.60
2018-02-04T01:55:59.848Z,4.40
2018-02-04T01:56:59.841Z,4.00
2018-02-04T01:57:59.830Z,4.10
2018-02-04T01:58:59.874Z,4.60
2018-02-04T01:59:59.978Z,4.50
2018-02-04T02:00:59.822Z,4.30
2018-02-04T02:01:59.808Z,3.90
2018-02-04T02:02:59.905Z,4.10
2018-02-04T02:03:59.838Z,4.00
2018-02-04T02:04:59.790Z,3.70
2018-02-04T02:05:59.780Z,4.20
2018-02-04T02:06:59.781Z,4.10
2018-02-04T02:07:59.776Z,5.40
2018-02-04T02:08:59.803Z,4.80
2018-02-04T02:09:59.763Z,4.10
2018-02-04T02:10:59.755Z,3.70
2018-02-04T02:11:59.755Z,4.70
2018-02-04T02:12:59.743Z,4.70
2018-02-04T02:13:59.775Z,3.70
2018-02-04T02:14:59.733Z,4.30
2018-02-04T02:15:59.728Z,3.70
2018-02-04T02:16:59.720Z,4.50
2018-02-04T02:17:59.711Z,4.30
2018-02-04T02:18:59.749Z,4.00
2018-02-04T02:19:59.717Z,3.60
2018-02-04T02:20:59.691Z,4.60
2018-02-04T02:21:59.686Z,3.10
2018-02-04T02:22:59.684Z,4.00
2018-02-04T02:23:59.720Z,3.70
2018-02-04T02:24:59.715Z,3.70
2018-02-04T02:25:59.662Z,2.30
2018-02-04T02:26:59.654Z,6.10
2018-02-04T02:27:59.653Z,3.80
2018-02-04T02:28:59.641Z,4.10
2018-02-04T02:29:59.686Z,4.10
2018-02-04T02:30:59.652Z,3.70
2018-02-04T02:31:59.634Z,4.60
2018-02-04T02:32:59.623Z,4.30
2018-02-04T02:33:59.628Z,4.40
2018-02-04T02:34:59.653Z,4.00
2018-02-04T02:35:59.607Z,3.50
2018-02-04T02:36:59.599Z,4.40
2018-02-04T02:37:59.588Z,3.50
2018-02-04T02:39:00.509Z,4.40
2018-02-04T02:39:59.622Z,5.40
2018-02-04T02:40:59.569Z,4.10
2018-02-04T02:41:59.569Z,5.00
2018-02-04T02:42:59.555Z,3.50
2018-02-04T02:43:59.556Z,4.70
2018-02-04T02:44:59.591Z,3.20
2018-02-04T02:45:59.546Z,3.00
2018-02-04T02:46:59.534Z,4.00
2018-02-04T02:47:59.553Z,3.50
2018-02-04T02:48:59.522Z,4.30
2018-02-04T02:49:59.563Z,4.20
2018-02-04T02:50:59.514Z,2.80
2018-02-04T02:51:59.507Z,4.70
2018-02-04T02:52:59.780Z,3.30
2018-02-04T02:53:59.489Z,3.10
2018-02-04T02:54:59.532Z,3.40
2018-02-04T02:55:59.478Z,3.00
2018-02-04T02:56:59.473Z,3.80
2018-02-04T02:57:59.468Z,3.00
2018-02-04T02:58:59.461Z,3.10
2018-02-04T02:59:59.497Z,3.20
2018-02-04T03:00:59.453Z,3.20
2018-02-04T03:01:59.443Z,3.40
2018-02-04T03:02:59.796Z,4.00
2018-02-04T03:03:59.474Z,4.90
2018-02-04T03:04:59.424Z,4.20
2018-02-04T03:05:59.420Z,4.80
2018-02-04T03:06:59.411Z,3.40
2018-02-04T03:07:59.409Z,4.40
2018-02-04T03:08:59.440Z,4.20
2018-02-04T03:09:59.393Z,3.60
2018-02-04T03:10:59.439Z,4.50
2018-02-04T03:11:59.386Z,4.90
2018-02-04T03:12:59.377Z,6.00
2018-02-04T03:13:59.417Z,6.20
2018-02-04T03:14:59.366Z,6.00
2018-02-04T03:15:59.364Z,7.00
2018-02-04T03:16:59.389Z,6.30
2018-02-04T03:17:59.346Z,6.00
2018-02-04T03:18:59.336Z,7.80
2018-02-04T03:19:59.334Z,7.50
2018-02-04T03:20:59.326Z,6.30
2018-02-04T03:21:59.365Z,8.30
2018-02-04T03:22:59.317Z,6.60
2018-02-04T03:23:59.355Z,7.60
2018-02-04T03:24:59.301Z,6.80
2018-02-04T03:25:59.300Z,8.30
2018-02-04T03:26:59.332Z,6.70
2018-02-04T03:27:59.285Z,6.60
2018-02-04T03:28:59.280Z,5.60
2018-02-04T03:29:59.277Z,9.30
2018-02-04T03:30:59.279Z,8.40
2018-02-04T03:31:59.300Z,7.40
2018-02-04T03:32:59.266Z,7.80
2018-02-04T03:33:59.248Z,7.90
2018-02-04T03:34:59.245Z,7.90
2018-02-04T03:35:59.238Z,9.70
2018-02-04T03:36:59.276Z,8.10
2018-02-04T03:37:59.226Z,8.40
2018-02-04T03:38:59.221Z,8.30
2018-02-04T03:39:59.263Z,9.40
2018-02-04T03:40:59.214Z,11.90
2018-02-04T03:41:59.245Z,12.90
2018-02-04T03:42:59.198Z,11.20
2018-02-04T03:43:59.188Z,11.90
2018-02-04T03:44:59.183Z,12.40
2018-02-04T03:45:59.177Z,12.80
2018-02-04T03:46:59.214Z,12.00
2018-02-04T03:47:59.205Z,11.70
2018-02-04T03:48:59.157Z,11.50
2018-02-04T03:49:59.153Z,11.70
2018-02-04T03:50:59.151Z,11.90
2018-02-04T03:51:59.182Z,5.70
2018-02-04T03:52:59.132Z,11.30
2018-02-04T03:53:59.132Z,9.80
2018-02-04T03:54:59.121Z,12.30
2018-02-04T03:55:59.158Z,11.50
2018-02-04T03:56:59.164Z,10.00
2018-02-04T03:57:59.116Z,9.20
2018-02-04T03:58:59.778Z,11.10
2018-02-04T03:59:59.094Z,9.00
2018-02-04T04:00:59.090Z,13.20
2018-02-04T04:01:59.121Z,14.40
2018-02-04T04:02:59.073Z,13.60
2018-02-04T04:03:59.067Z,12.60
2018-02-04T04:04:59.058Z,10.90
2018-02-04T04:05:59.056Z,12.60
2018-02-04T04:06:59.090Z,13.00
2018-02-04T04:07:59.040Z,13.30
2018-02-04T04:08:59.036Z,12.70
2018-02-04T04:09:59.587Z,12.50
2018-02-04T04:10:59.022Z,11.20
2018-02-04T04:11:59.059Z,14.90
2018-02-04T04:12:59.011Z,13.20
2018-02-04T04:13:59.006Z,13.20
2018-02-04T04:14:58.998Z,13.40
2018-02-04T04:15:58.994Z,16.10
2018-02-04T04:16:59.026Z,14.70
2018-02-04T04:17:59.027Z,9.60
2018-02-04T04:18:58.970Z,15.50
2018-02-04T04:19:58.968Z,16.20
2018-02-04T04:20:58.968Z,16.10
2018-02-04T04:21:58.996Z,12.90
2018-02-04T04:22:58.956Z,17.10
2018-02-04T04:23:58.987Z,11.20
2018-02-04T04:24:58.938Z,15.30
2018-02-04T04:25:58.939Z,13.10
2018-02-04T04:26:58.922Z,13.00
2018-02-04T04:27:58.917Z,12.90
2018-02-04T04:28:58.980Z,12.20
2018-02-04T04:29:58.916Z,12.80
2018-02-04T04:30:58.941Z,14.60
2018-02-04T04:31:58.893Z,13.30
2018-02-04T04:32:58.890Z,13.50
2018-02-04T04:33:58.885Z,13.20
2018-02-04T04:34:58.920Z,15.40
2018-02-04T04:35:58.868Z,16.20
2018-02-04T04:36:58.866Z,12.20
2018-02-04T04:37:58.857Z,13.10
2018-02-04T04:38:58.853Z,15.10
2018-02-04T04:39:58.888Z,13.00
2018-02-04T04:40:58.836Z,12.00
2018-02-04T04:41:58.829Z,11.90
2018-02-04T04:42:58.826Z,12.30
2018-02-04T04:43:58.822Z,12.60
2018-02-04T04:44:58.857Z,11.30
2018-02-04T04:45:58.808Z,13.30
2018-02-04T04:46:58.802Z,12.40
2018-02-04T04:47:58.793Z,12.00
2018-02-04T04:48:58.786Z,13.20
2018-02-04T04:49:58.827Z,14.80
2018-02-04T04:50:58.818Z,15.30
2018-02-04T04:51:58.768Z,15.50
2018-02-04T04:52:58.781Z,13.30
2018-02-04T04:53:58.758Z,12.30
2018-02-04T04:54:58.753Z,12.20
2018-02-04T04:55:58.791Z,15.10
2018-02-04T04:56:58.739Z,13.20
2018-02-04T04:57:58.739Z,15.00
2018-02-04T04:58:58.725Z,15.80
2018-02-04T04:59:58.723Z,13.20
2018-02-04T05:00:58.752Z,14.50
2018-02-04T05:01:58.709Z,16.00
2018-02-04T05:02:58.702Z,16.90
2018-02-04T05:03:58.702Z,14.90
2018-02-04T05:04:58.690Z,16.10
2018-02-04T05:05:58.734Z,14.20
2018-02-04T05:06:58.678Z,14.10
2018-02-04T05:07:58.673Z,15.90
2018-02-04T05:08:58.668Z,16.30
2018-02-04T05:09:58.662Z,17.50
2018-02-04T05:10:58.708Z,16.80
2018-02-04T05:11:58.649Z,16.20
2018-02-04T05:12:58.642Z,19.30
2018-02-04T05:13:58.638Z,15.30
2018-02-04T05:14:58.640Z,16.60
2018-02-04T05:15:58.668Z,12.80
2018-02-04T05:16:58.619Z,15.70
2018-02-04T05:17:58.611Z,15.80
2018-02-04T05:18:58.611Z,13.20
2018-02-04T05:19:58.606Z,15.90
2018-02-04T05:20:58.639Z,12.50
2018-02-04T05:21:58.586Z,19.20
2018-02-04T05:22:58.585Z,14.60
2018-02-04T05:23:58.577Z,13.70
2018-02-04T05:24:58.571Z,15.30
2018-02-04T05:25:58.603Z,17.40
2018-02-04T05:26:58.559Z,14.80
2018-02-04T05:27:58.555Z,15.10
2018-02-04T05:28:58.545Z,17.60
2018-02-04T05:29:58.539Z,17.70
2018-02-04T05:30:58.579Z,16.20
2018-02-04T05:31:58.528Z,18.20
2018-02-04T05:32:58.524Z,14.10
2018-02-04T05:33:58.517Z,17.50
2018-02-04T05:34:58.508Z,18.40
2018-02-04T05:35:58.553Z,16.70
2018-02-04T05:36:58.496Z,17.60
2018-02-04T05:37:58.488Z,15.40
2018-02-04T05:38:58.486Z,18.40
2018-02-04T05:39:58.524Z,18.60
2018-02-04T05:40:58.474Z,17.30
2018-02-04T05:41:58.464Z,15.70
2018-02-04T05:42:58.461Z,15.10
2018-02-04T05:43:58.456Z,15.30
2018-02-04T05:44:58.488Z,17.10
2018-02-04T05:45:58.453Z,16.40
2018-02-04T05:46:58.477Z,13.20
2018-02-04T05:47:58.437Z,15.30
2018-02-04T05:48:58.424Z,14.90
2018-02-04T05:49:58.419Z,13.10
2018-02-04T05:50:58.412Z,15.70
2018-02-04T05:51:58.452Z,14.10
2018-02-04T05:52:58.401Z,12.00
2018-02-04T05:53:58.392Z,13.00
2018-02-04T05:54:58.431Z,11.80
2018-02-04T05:55:58.383Z,13.30
2018-02-04T05:56:58.380Z,13.90
2018-02-04T05:57:58.411Z,16.70
2018-02-04T05:58:58.363Z,13.30
2018-02-04T05:59:58.358Z,11.60
2018-02-04T06:00:59.335Z,10.80
2018-02-04T06:01:58.348Z,11.90
2018-02-04T06:02:58.382Z,14.30
2018-02-04T06:03:58.337Z,14.40
2018-02-04T06:04:58.333Z,14.10
2018-02-04T06:05:58.323Z,11.50
2018-02-04T06:06:58.319Z,10.70
2018-02-04T06:07:58.350Z,8.80
2018-02-04T06:08:58.307Z,9.40
2018-02-04T06:09:58.302Z,14.90
2018-02-04T06:10:58.296Z,9.90
2018-02-04T06:11:58.292Z,9.60
2018-02-04T06:12:58.327Z,8.90
2018-02-04T06:13:58.329Z,13.30
2018-02-04T06:14:58.308Z,10.60
2018-02-04T06:15:58.263Z,10.70
2018-02-04T06:16:58.259Z,10.80
2018-02-04T06:17:58.260Z,8.80
2018-02-04T06:18:58.293Z,12.60
2018-02-04T06:19:58.288Z,11.50
2018-02-04T06:20:58.237Z,11.60
2018-02-04T06:21:58.241Z,10.30
2018-02-04T06:22:58.230Z,8.70
2018-02-04T06:23:58.702Z,11.30
2018-02-04T06:24:58.252Z,12.70
2018-02-04T06:25:58.213Z,10.80
2018-02-04T06:26:58.200Z,9.70
2018-02-04T06:27:58.195Z,13.40
2018-02-04T06:28:58.188Z,11.70
2018-02-04T06:29:58.218Z,10.90
2018-02-04T06:30:58.181Z,10.80
2018-02-04T06:31:58.169Z,11.20
2018-02-04T06:32:58.166Z,10.90
2018-02-04T06:33:58.160Z,11.60
2018-02-04T06:34:58.195Z,15.50
2018-02-04T06:35:58.150Z,11.00
2018-02-04T06:36:58.142Z,11.40
2018-02-04T06:37:58.137Z,10.70
2018-02-04T06:38:58.137Z,12.10
2018-02-04T06:39:58.171Z,13.10
2018-02-04T06:40:58.465Z,11.90
2018-02-04T06:41:58.112Z,11.20
2018-02-04T06:42:58.124Z,10.10
2018-02-04T06:43:58.102Z,10.80
2018-02-04T06:44:58.143Z,11.50
2018-02-04T06:45:58.096Z,14.90
2018-02-04T06:46:58.654Z,13.40
2018-02-04T06:47:58.084Z,12.50
2018-02-04T06:48:58.079Z,13.30
2018-02-04T06:49:58.113Z,12.90
2018-02-04T06:50:58.063Z,13.10
2018-02-04T06:51:58.056Z,13.20
2018-02-04T06:52:58.054Z,13.00
2018-02-04T06:53:58.044Z,12.20
2018-02-04T06:54:58.082Z,15.70
2018-02-04T06:55:58.036Z,15.20
2018-02-04T06:56:58.027Z,13.60
2018-02-04T06:57:58.027Z,12.70
2018-02-04T06:58:58.015Z,15.10
2018-02-04T06:59:58.048Z,14.70
2018-02-04T07:00:58.006Z,13.60
2018-02-04T07:01:57.999Z,11.40
2018-02-04T07:02:57.992Z,16.30
2018-02-04T07:03:57.990Z,14.50
2018-02-04T07:04:58.026Z,13.20
2018-02-04T07:05:58.257Z,13.80
2018-02-04T07:06:57.971Z,17.70
2018-02-04T07:07:57.966Z,16.20
2018-02-04T07:08:57.961Z,15.70
2018-02-04T07:09:57.997Z,14.70
2018-02-04T07:10:57.949Z,13.10
2018-02-04T07:11:57.943Z,17.30
2018-02-04T07:12:57.937Z,16.50
2018-02-04T07:13:57.937Z,12.80
2018-02-04T07:14:57.971Z,13.10
2018-02-04T07:15:58.340Z,12.00
2018-02-04T07:16:57.915Z,11.40
2018-02-04T07:17:57.908Z,11.60
2018-02-04T07:18:57.978Z,9.20
2018-02-04T07:19:57.969Z,10.90
2018-02-04T07:20:57.945Z,9.80
2018-02-04T07:21:57.886Z,9.60
2018-02-04T07:22:57.878Z,8.20
2018-02-04T07:23:57.981Z,8.80
2018-02-04T07:24:57.913Z,10.40
2018-02-04T07:25:57.860Z,9.80
2018-02-04T07:26:57.855Z,9.10
2018-02-04T07:27:57.851Z,10.50
2018-02-04T07:28:57.844Z,11.40
2018-02-04T07:29:57.884Z,9.80
2018-02-04T07:30:57.834Z,8.20
2018-02-04T07:31:57.825Z,8.60
2018-02-04T07:32:57.824Z,9.30
2018-02-04T07:33:57.881Z,7.50
2018-02-04T07:34:57.855Z,11.00
2018-02-04T07:35:57.808Z,10.10
2018-02-04T07:36:57.828Z,8.10
2018-02-04T07:37:57.793Z,7.30
2018-02-04T07:38:57.800Z,8.40
2018-02-04T07:39:57.822Z,8.30
2018-02-04T07:40:58.545Z,8.00
2018-02-04T07:41:57.774Z,9.30
2018-02-04T07:42:57.946Z,8.50
2018-02-04T07:43:57.813Z,9.20
2018-02-04T07:44:57.797Z,8.50
2018-02-04T07:45:57.763Z,7.90
2018-02-04T07:46:57.744Z,6.80
2018-02-04T07:47:57.787Z,8.20
2018-02-04T07:48:57.855Z,7.50
2018-02-04T07:49:57.775Z,8.50
2018-02-04T07:50:57.755Z,7.70
2018-02-04T07:51:57.724Z,7.70
2018-02-04T07:52:57.715Z,8.50
2018-02-04T07:53:57.744Z,7.30
2018-02-04T07:54:57.718Z,8.20
2018-02-04T07:55:57.725Z,7.10
2018-02-04T07:56:58.881Z,8.60
2018-02-04T07:57:57.733Z,9.10
2018-02-04T07:58:57.684Z,9.10
2018-02-04T07:59:57.764Z,9.60
2018-02-04T08:00:57.669Z,9.20
2018-02-04T08:01:57.697Z,8.20
2018-02-04T08:02:57.703Z,8.00
2018-02-04T08:03:57.776Z,9.30
2018-02-04T08:04:57.654Z,8.00
2018-02-04T08:05:57.640Z,8.70
2018-02-04T08:06:57.651Z,9.20
2018-02-04T08:07:57.629Z,9.00
2018-02-04T08:08:57.679Z,8.30
2018-02-04T08:09:57.623Z,9.50
2018-02-04T08:10:57.623Z,9.70
2018-02-04T08:11:58.168Z,8.30
2018-02-04T08:12:57.604Z,9.00
2018-02-04T08:13:57.639Z,10.80
2018-02-04T08:14:57.590Z,8.50
2018-02-04T08:15:57.586Z,8.40
2018-02-04T08:16:57.583Z,8.60
2018-02-04T08:17:57.576Z,9.30
2018-02-04T08:18:57.611Z,8.20
2018-02-04T08:19:57.556Z,8.90
2018-02-04T08:20:57.552Z,10.40
2018-02-04T08:21:57.546Z,9.10
2018-02-04T08:22:57.540Z,11.40
2018-02-04T08:23:57.571Z,9.80
2018-02-04T08:24:57.529Z,9.60
2018-02-04T08:25:58.154Z,10.20
2018-02-04T08:26:57.517Z,9.30
2018-02-04T08:27:57.510Z,10.90
2018-02-04T08:28:57.548Z,10.70
2018-02-04T08:29:57.507Z,11.50
2018-02-04T08:30:57.550Z,10.30
2018-02-04T08:31:57.488Z,11.00
2018-02-04T08:32:57.486Z,10.80
2018-02-04T08:33:57.539Z,10.80
2018-02-04T08:34:57.517Z,11.00
2018-02-04T08:35:57.478Z,10.40
2018-02-04T08:36:57.463Z,10.70
2018-02-04T08:37:57.472Z,11.00
2018-02-04T08:38:57.452Z,11.40
2018-02-04T08:39:57.496Z,10.90
2018-02-04T08:40:57.445Z,10.90
2018-02-04T08:41:57.440Z,11.10
2018-02-04T08:42:58.152Z,10.80
2018-02-04T08:43:57.430Z,10.50
2018-02-04T08:44:57.463Z,10.50
2018-02-04T08:45:57.422Z,10.60
2018-02-04T08:46:57.419Z,11.60
2018-02-04T08:47:57.413Z,10.20
2018-02-04T08:48:57.408Z,10.50
2018-02-04T08:49:57.441Z,10.50
2018-02-04T08:50:57.396Z,11.20
2018-02-04T08:51:57.396Z,11.60
2018-02-04T08:52:57.387Z,11.00
2018-02-04T08:53:57.384Z,10.50
2018-02-04T08:54:57.432Z,10.80
2018-02-04T08:55:57.373Z,10.60
2018-02-04T08:56:57.369Z,10.70
2018-02-04T08:57:57.374Z,12.20
2018-02-04T08:58:57.358Z,12.10
2018-02-04T08:59:57.401Z,10.60
2018-02-04T09:00:57.349Z,11.30
2018-02-04T09:01:57.344Z,10.90
2018-02-04T09:02:57.344Z,10.90
2018-02-04T09:03:57.336Z,10.40
2018-02-04T09:04:57.374Z,10.50
2018-02-04T09:05:57.321Z,11.30
2018-02-04T09:06:57.319Z,11.90
2018-02-04T09:07:57.313Z,12.80
2018-02-04T09:08:57.314Z,11.20
2018-02-04T09:09:57.352Z,12.30
2018-02-04T09:10:57.303Z,11.10
2018-02-04T09:11:57.296Z,14.00
2018-02-04T09:12:57.293Z,11.90
2018-02-04T09:13:57.322Z,14.00
2018-02-04T09:14:57.346Z,13.80
2018-02-04T09:15:57.280Z,11.50
2018-02-04T09:16:57.273Z,11.80
2018-02-04T09:17:57.272Z,12.50
2018-02-04T09:18:57.272Z,13.40
2018-02-04T09:19:57.298Z,12.20
2018-02-04T09:20:57.255Z,12.80
2018-02-04T09:21:57.248Z,12.00
2018-02-04T09:22:57.243Z,12.60
2018-02-04T09:23:57.242Z,11.50
2018-02-04T09:24:57.279Z,11.70
2018-02-04T09:25:57.230Z,12.50
2018-02-04T09:26:57.241Z,11.70
2018-02-04T09:27:57.222Z,12.50
2018-02-04T09:28:57.276Z,11.60
2018-02-04T09:29:57.218Z,10.50
2018-02-04T09:30:57.214Z,11.10
2018-02-04T09:31:57.200Z,11.60
2018-02-04T09:32:57.202Z,11.80
2018-02-04T09:33:57.200Z,11.70
2018-02-04T09:34:57.231Z,12.00
2018-02-04T09:35:57.192Z,13.20
2018-02-04T09:36:57.186Z,11.90
2018-02-04T09:37:57.187Z,12.00
2018-02-04T09:38:57.178Z,12.30
2018-02-04T09:39:57.225Z,10.70
2018-02-04T09:40:57.177Z,11.00
2018-02-04T09:41:57.173Z,10.70
2018-02-04T09:42:57.174Z,11.40
2018-02-04T09:43:57.168Z,10.30
2018-02-04T09:44:57.202Z,11.50
2018-02-04T09:45:57.156Z,12.10
2018-02-04T09:46:57.157Z,16.50
2018-02-04T09:47:57.147Z,12.40
2018-02-04T09:48:57.150Z,13.80
2018-02-04T09:49:57.180Z,16.80
2018-02-04T09:50:57.137Z,16.60
2018-02-04T09:51:57.577Z,12.40
2018-02-04T09:52:57.131Z,10.90
2018-02-04T09:53:57.135Z,10.80
2018-02-04T09:54:57.164Z,10.70
2018-02-04T09:55:57.128Z,12.80
2018-02-04T09:56:57.124Z,12.00
2018-02-04T09:57:57.124Z,11.50
2018-02-04T09:58:57.238Z,12.70
2018-02-04T09:59:57.155Z,11.10
2018-02-04T10:00:57.121Z,11.60
2018-02-04T10:01:57.106Z,10.70
2018-02-04T10:02:57.119Z,11.90
2018-02-04T10:03:57.103Z,11.40
2018-02-04T10:04:57.361Z,10.70
2018-02-04T10:05:57.117Z,12.00
2018-02-04T10:06:57.093Z,11.10
2018-02-04T10:07:57.089Z,11.20
2018-02-04T10:08:57.091Z,12.60
2018-02-04T10:09:57.142Z,11.80
2018-02-04T10:10:57.081Z,12.80
2018-02-04T10:11:57.080Z,11.50
2018-02-04T10:12:57.085Z,11.50
2018-02-04T10:13:57.079Z,10.70
2018-02-04T10:14:57.117Z,10.30
2018-02-04T10:15:57.106Z,10.00
2018-02-04T10:16:57.084Z,10.30
2018-02-04T10:17:57.070Z,10.30
2018-02-04T10:18:57.068Z,10.90
2018-02-04T10:19:57.109Z,12.20
2018-02-04T10:20:57.069Z,11.80
2018-02-04T10:21:57.053Z,8.70
2018-02-04T10:22:57.053Z,10.50
2018-02-04T10:23:57.053Z,9.90
2018-02-04T10:24:57.080Z,10.40
2018-02-04T10:25:57.042Z,9.60
2018-02-04T10:26:57.049Z,11.90
2018-02-04T10:27:57.030Z,10.50
2018-02-04T10:28:57.029Z,9.60
2018-02-04T10:29:57.066Z,10.70
2018-02-04T10:30:57.030Z,9.50
2018-02-04T10:31:57.010Z,10.50
2018-02-04T10:32:57.022Z,10.40
2018-02-04T10:33:57.019Z,9.60
2018-02-04T10:34:57.044Z,10.30
2018-02-04T10:35:57.052Z,10.70
2018-02-04T10:36:57.668Z,10.40
2018-02-04T10:37:56.996Z,9.40
2018-02-04T10:38:56.993Z,9.50
2018-02-04T10:39:56.993Z,9.70
2018-02-04T10:40:57.033Z,9.50
2018-02-04T10:41:56.977Z,11.20
2018-02-04T10:42:56.970Z,10.80
2018-02-04T10:43:56.977Z,11.80
2018-02-04T10:44:56.981Z,11.70
2018-02-04T10:45:57.002Z,10.00
2018-02-04T10:46:56.969Z,10.80
2018-02-04T10:47:56.949Z,10.60
2018-02-04T10:48:56.952Z,10.50
2018-02-04T10:49:56.942Z,9.40
2018-02-04T10:50:56.986Z,11.10
2018-02-04T10:51:56.931Z,10.50
2018-02-04T10:52:56.943Z,10.00
2018-02-04T10:53:56.936Z,9.70
2018-02-04T10:54:56.933Z,9.70
2018-02-04T10:55:56.958Z,9.70
2018-02-04T10:56:56.907Z,10.50
2018-02-04T10:57:56.917Z,10.60
2018-02-04T10:58:56.918Z,10.00
2018-02-04T10:59:56.948Z,12.20
2018-02-04T11:00:56.908Z,11.80
2018-02-04T11:01:56.946Z,11.20
2018-02-04T11:02:56.882Z,11.00
2018-02-04T11:03:56.893Z,11.60
2018-02-04T11:04:56.885Z,10.30
2018-02-04T11:05:56.895Z,11.10
2018-02-04T11:06:56.920Z,10.60
2018-02-04T11:07:56.869Z,12.80
2018-02-04T11:08:56.870Z,11.60
2018-02-04T11:09:56.851Z,11.50
2018-02-04T11:10:56.856Z,10.20
2018-02-04T11:11:56.900Z,12.10
2018-02-04T11:12:56.851Z,10.70
2018-02-04T11:13:56.848Z,11.30
2018-02-04T11:14:56.841Z,11.30
2018-02-04T11:15:56.829Z,10.80
2018-02-04T11:16:57.017Z,10.80
2018-02-04T11:17:56.835Z,11.10
2018-02-04T11:18:56.812Z,11.20
2018-02-04T11:19:56.865Z,10.60
2018-02-04T11:20:56.807Z,11.40
2018-02-04T11:21:56.824Z,11.50
2018-02-04T11:22:56.841Z,11.90
2018-02-04T11:23:56.795Z,11.30
2018-02-04T11:24:56.803Z,10.90
2018-02-04T11:25:56.781Z,10.60
2018-02-04T11:26:56.784Z,9.80
2018-02-04T11:27:56.826Z,11.60
2018-02-04T11:28:56.777Z,10.50
2018-02-04T11:29:56.798Z,9.80
2018-02-04T11:30:56.755Z,11.00
2018-02-04T11:31:56.764Z,10.90
2018-02-04T11:32:56.797Z,10.80
2018-02-04T11:33:56.750Z,11.80
2018-02-04T11:34:56.748Z,11.20
2018-02-04T11:35:56.734Z,12.00
2018-02-04T11:36:56.739Z,11.70
2018-02-04T11:37:56.780Z,12.10
2018-02-04T11:38:56.732Z,12.80
2018-02-04T11:39:56.764Z,9.10
2018-02-04T11:40:56.716Z,12.40
2018-02-04T11:41:56.709Z,12.20
2018-02-04T11:42:56.705Z,11.40
2018-02-04T11:43:56.741Z,10.60
2018-02-04T11:44:56.746Z,9.80
2018-02-04T11:45:56.687Z,10.80
2018-02-04T11:46:56.684Z,10.60
2018-02-04T11:47:56.667Z,11.70
2018-02-04T11:48:56.675Z,10.70
2018-02-04T11:49:56.708Z,11.70
2018-02-04T11:50:56.664Z,11.70
2018-02-04T11:51:56.655Z,10.70
2018-02-04T11:52:56.667Z,12.20
2018-02-04T11:53:56.691Z,12.50
2018-02-04T11:54:56.636Z,13.80
2018-02-04T11:55:56.638Z,12.50
2018-02-04T11:56:59.277Z,13.00
2018-02-04T11:57:56.628Z,12.10
2018-02-04T11:58:56.660Z,12.60
2018-02-04T11:59:56.675Z,14.60
2018-02-04T12:00:56.605Z,12.80
2018-02-04T12:01:56.620Z,12.60
2018-02-04T12:02:56.604Z,13.60
2018-02-04T12:03:56.600Z,8.70
2018-02-04T12:04:56.636Z,13.80
2018-02-04T12:05:56.588Z,13.50
2018-02-04T12:06:56.593Z,12.40
2018-02-04T12:07:56.579Z,12.00
2018-02-04T12:08:56.614Z,10.00
2018-02-04T12:09:56.568Z,13.20
2018-02-04T12:10:56.566Z,12.00
2018-02-04T12:11:56.559Z,13.90
2018-02-04T12:12:56.552Z,10.20
2018-02-04T12:13:56.590Z,12.50
2018-02-04T12:14:56.543Z,13.70
2018-02-04T12:15:56.535Z,13.10
2018-02-04T12:16:56.533Z,12.80
2018-02-04T12:17:56.525Z,10.30
2018-02-04T12:18:56.564Z,12.80
2018-02-04T12:19:56.523Z,14.80
2018-02-04T12:20:56.513Z,13.80
2018-02-04T12:21:56.508Z,12.30
2018-02-04T12:22:56.506Z,12.50
2018-02-04T12:23:56.542Z,15.60
2018-02-04T12:24:56.493Z,11.00
2018-02-04T12:25:56.489Z,13.90
2018-02-04T12:26:56.484Z,13.60
2018-02-04T12:27:56.482Z,11.20
2018-02-04T12:28:56.516Z,13.30
2018-02-04T12:29:56.472Z,12.10
2018-02-04T12:30:56.465Z,14.00
2018-02-04T12:31:56.461Z,13.30
2018-02-04T12:32:56.523Z,13.20
2018-02-04T12:33:56.503Z,11.80
2018-02-04T12:34:56.447Z,11.50
2018-02-04T12:35:56.444Z,11.70
2018-02-04T12:36:56.439Z,12.80
2018-02-04T12:37:56.437Z,12.30
2018-02-04T12:38:56.472Z,12.70
2018-02-04T12:39:56.425Z,10.60
2018-02-04T12:40:56.419Z,12.10
2018-02-04T12:41:56.414Z,12.80
2018-02-04T12:42:56.414Z,10.40
2018-02-04T12:43:56.405Z,12.30
2018-02-04T12:44:56.441Z,12.50
2018-02-04T12:45:56.395Z,10.80
2018-02-04T12:46:56.388Z,9.00
2018-02-04T12:47:56.441Z,12.00
2018-02-04T12:48:56.385Z,13.00
2018-02-04T12:49:56.415Z,12.30
2018-02-04T12:50:56.374Z,12.00
2018-02-04T12:51:56.365Z,12.10
2018-02-04T12:52:56.362Z,13.00
2018-02-04T12:53:56.356Z,10.80
2018-02-04T12:54:56.398Z,10.70
2018-02-04T12:55:56.351Z,13.00
2018-02-04T12:56:56.341Z,12.90
2018-02-04T12:57:56.338Z,13.90
2018-02-04T12:58:56.332Z,12.60
2018-02-04T12:59:56.371Z,12.50
2018-02-04T13:00:56.365Z,14.00
2018-02-04T13:01:56.318Z,12.80